createdAt,value
2019-05-21T00:01:31.298Z,8.18
2019-05-21T00:04:02.632Z,6.80
2019-05-21T00:06:32.900Z,7.40
2019-05-21T00:09:04.433Z,9.85
2019-05-21T00:11:34.748Z,10.38
2019-05-21T00:14:05.074Z,12.98
2019-05-21T00:16:35.431Z,15.38
2019-05-21T00:19:05.711Z,7.17
2019-05-21T00:21:37.044Z,7.62
2019-05-21T00:24:07.381Z,8.05
2019-05-21T00:26:38.678Z,8.53
2019-05-21T00:29:45.386Z,5.45
2019-05-21T00:32:52.964Z,6.50
2019-05-21T00:35:59.690Z,9.28
2019-05-21T00:39:06.365Z,9.23
2019-05-21T00:42:08.818Z,7.87
2019-05-21T00:44:42.046Z,6.67
2019-05-21T00:47:13.313Z,8.38
2019-05-21T00:49:43.586Z,5.45
2019-05-21T00:52:13.816Z,6.28
2019-05-21T00:54:45.058Z,5.72
2019-05-21T00:57:15.278Z,7.35
2019-05-21T00:59:45.725Z,8.35
2019-05-21T01:02:16.055Z,6.47
2019-05-21T01:04:59.546Z,7.30
2019-05-21T01:07:19.665Z,10.03
2019-05-21T01:09:50.000Z,10.55
2019-05-21T01:12:20.333Z,13.35
2019-05-21T01:14:50.676Z,14.78
2019-05-21T01:17:20.870Z,9.90
2019-05-21T01:19:51.233Z,14.23
2019-05-21T01:22:24.556Z,10.90
2019-05-21T01:24:54.825Z,8.68
2019-05-21T01:27:25.150Z,10.45
2019-05-21T01:29:55.384Z,12.35
2019-05-21T01:32:25.709Z,7.20
2019-05-21T01:34:56.018Z,7.03
2019-05-21T01:37:26.261Z,11.95
2019-05-21T01:39:57.494Z,10.03
2019-05-21T01:42:27.725Z,8.43
2019-05-21T01:44:57.974Z,10.28
2019-05-21T01:47:28.317Z,11.30
2019-05-21T01:50:06.707Z,10.78
2019-05-21T01:52:36.994Z,10.55
2019-05-21T01:55:07.306Z,9.88
2019-05-21T01:57:37.492Z,11.15
2019-05-21T02:00:07.737Z,10.75
2019-05-21T02:02:38.081Z,10.43
2019-05-21T02:05:08.360Z,13.38
2019-05-21T02:07:38.771Z,13.03
2019-05-21T02:10:09.511Z,11.15
2019-05-21T02:12:39.840Z,9.60
2019-05-21T02:15:10.374Z,11.57
2019-05-21T02:17:40.703Z,11.73
2019-05-21T02:20:11.116Z,10.05
2019-05-21T02:22:41.470Z,12.85
2019-05-21T02:25:12.084Z,13.22
2019-05-21T02:27:42.383Z,10.78
2019-05-21T02:30:13.042Z,12.33
2019-05-21T02:32:43.278Z,16.00
2019-05-21T02:35:13.552Z,12.18
2019-05-21T02:37:43.840Z,14.93
2019-05-21T02:40:14.568Z,12.78
2019-05-21T02:42:44.921Z,15.00
2019-05-21T02:45:16.074Z,12.70
2019-05-21T02:47:47.300Z,14.33
2019-05-21T02:50:17.644Z,11.78
2019-05-21T02:52:48.049Z,14.30
2019-05-21T02:55:20.099Z,23.62
2019-05-21T02:57:50.466Z,14.43
2019-05-21T03:00:31.540Z,17.95
2019-05-21T03:03:03.554Z,13.28
2019-05-21T03:05:33.874Z,13.95
2019-05-21T03:08:04.242Z,16.45
2019-05-21T03:10:34.543Z,16.93
2019-05-21T03:13:04.980Z,14.73
2019-05-21T03:15:35.213Z,15.23
2019-05-21T03:18:05.579Z,13.93
2019-05-21T03:20:35.970Z,14.85
2019-05-21T03:23:06.154Z,17.73
2019-05-21T03:25:36.499Z,16.85
2019-05-21T03:28:06.867Z,18.00
2019-05-21T03:30:37.137Z,18.37
2019-05-21T03:33:07.460Z,19.90
2019-05-21T03:35:37.782Z,17.95
2019-05-21T03:38:08.122Z,18.25
2019-05-21T03:40:38.416Z,15.65
2019-05-21T03:43:08.774Z,19.30
2019-05-21T03:45:39.100Z,23.12
2019-05-21T03:48:09.419Z,22.27
2019-05-21T03:50:39.712Z,22.95
2019-05-21T03:53:10.021Z,20.30
2019-05-21T03:55:40.379Z,21.80
2019-05-21T03:58:10.707Z,21.05
2019-05-21T04:00:41.032Z,19.73
2019-05-21T04:03:11.365Z,24.12
2019-05-21T04:05:41.815Z,21.00
2019-05-21T04:08:11.995Z,24.75
2019-05-21T04:10:42.250Z,23.45
2019-05-21T04:13:12.579Z,20.27
2019-05-21T04:15:44.909Z,21.55
2019-05-21T04:18:22.478Z,22.05
2019-05-21T04:20:52.833Z,17.73
2019-05-21T04:23:23.225Z,18.02
2019-05-21T04:25:53.511Z,22.58
2019-05-21T04:28:23.681Z,19.95
2019-05-21T04:30:53.877Z,18.17
2019-05-21T04:33:26.864Z,22.58
2019-05-21T04:35:57.178Z,20.23
2019-05-21T04:38:27.482Z,19.57
2019-05-21T04:40:57.820Z,15.68
2019-05-21T04:43:28.106Z,18.52
2019-05-21T04:45:58.470Z,21.70
2019-05-21T04:48:28.631Z,18.75
2019-05-21T04:50:58.912Z,18.42
2019-05-21T04:53:29.130Z,18.32
2019-05-21T04:55:59.411Z,20.15
2019-05-21T04:58:29.767Z,22.90
2019-05-21T05:01:00.093Z,22.37
2019-05-21T05:03:30.391Z,24.10
2019-05-21T05:06:00.631Z,30.50
2019-05-21T05:08:30.876Z,28.40
2019-05-21T05:11:01.190Z,27.42
2019-05-21T05:13:31.460Z,28.12
2019-05-21T05:16:04.180Z,26.73
2019-05-21T05:18:33.725Z,26.75
2019-05-21T05:21:03.988Z,24.10
2019-05-21T05:23:35.361Z,19.98
2019-05-21T05:26:05.658Z,15.00
2019-05-21T05:28:36.001Z,12.73
2019-05-21T05:31:06.215Z,18.50
2019-05-21T05:33:36.538Z,13.85
2019-05-21T05:36:06.797Z,17.73
2019-05-21T05:38:37.063Z,13.68
2019-05-21T05:41:07.307Z,15.30
2019-05-21T05:43:37.591Z,14.98
2019-05-21T05:46:07.907Z,16.85
2019-05-21T05:48:39.811Z,13.53
2019-05-21T05:51:10.245Z,17.17
2019-05-21T05:53:58.472Z,16.82
2019-05-21T05:56:29.524Z,20.02
2019-05-21T05:58:59.958Z,19.12
2019-05-21T06:01:33.035Z,17.65
2019-05-21T06:04:03.320Z,18.48
2019-05-21T06:06:33.643Z,25.50
2019-05-21T06:09:05.465Z,14.83
2019-05-21T06:11:35.729Z,14.75
2019-05-21T06:14:05.953Z,21.37
2019-05-21T06:16:36.187Z,18.75
2019-05-21T06:19:06.521Z,17.73
2019-05-21T06:21:36.707Z,17.27
2019-05-21T06:24:07.039Z,15.53
2019-05-21T06:26:37.418Z,17.32
2019-05-21T06:29:07.686Z,15.75
2019-05-21T06:31:38.017Z,16.85
2019-05-21T06:34:08.335Z,15.43
2019-05-21T06:36:38.650Z,22.32
2019-05-21T06:39:09.025Z,15.00
2019-05-21T06:41:39.313Z,19.75
2019-05-21T06:44:09.603Z,14.87
2019-05-21T06:46:39.897Z,17.60
2019-05-21T06:49:10.229Z,18.73
2019-05-21T06:51:40.554Z,15.58
2019-05-21T06:54:10.847Z,14.03
2019-05-21T06:56:41.061Z,16.97
2019-05-21T06:59:11.343Z,19.30
2019-05-21T07:01:42.551Z,14.28
2019-05-21T07:04:12.892Z,15.72
2019-05-21T07:06:44.889Z,13.32
2019-05-21T07:09:15.175Z,15.25
2019-05-21T07:11:46.503Z,16.60
2019-05-21T07:14:16.878Z,18.75
2019-05-21T07:16:47.139Z,13.38
2019-05-21T07:19:17.461Z,15.85
2019-05-21T07:21:47.898Z,14.00
2019-05-21T07:24:19.371Z,13.62
2019-05-21T07:26:51.955Z,19.92
2019-05-21T07:29:27.143Z,13.95
2019-05-21T07:32:37.455Z,14.58
2019-05-21T07:35:27.311Z,15.58
2019-05-21T07:37:54.516Z,15.32
2019-05-21T07:40:26.604Z,14.33
2019-05-21T08:01:01.794Z,13.32
2019-05-21T08:03:34.261Z,13.68
2019-05-21T08:06:04.472Z,14.23
2019-05-21T08:08:34.780Z,12.45
2019-05-21T08:11:05.105Z,23.30
2019-05-21T08:13:35.466Z,19.95
2019-05-21T08:16:05.752Z,21.40
2019-05-21T08:18:35.995Z,19.65
2019-05-21T08:21:06.846Z,19.45
2019-05-21T08:23:37.107Z,18.15
2019-05-21T08:26:07.315Z,19.57
2019-05-21T08:28:37.582Z,19.73
2019-05-21T08:31:07.912Z,16.62
2019-05-21T08:33:38.191Z,14.33
2019-05-21T08:36:08.535Z,9.63
2019-05-21T08:38:38.855Z,9.13
2019-05-21T08:41:09.133Z,9.13
2019-05-21T08:43:39.367Z,8.15
2019-05-21T08:46:09.588Z,11.65
2019-05-21T08:48:39.801Z,13.10
2019-05-21T08:51:10.057Z,8.35
2019-05-21T08:53:40.337Z,7.00
2019-05-21T08:56:11.579Z,7.53
2019-05-21T08:58:41.808Z,8.78
2019-05-21T09:01:12.111Z,7.50
2019-05-21T09:03:42.428Z,6.75
2019-05-21T09:06:12.701Z,8.00
2019-05-21T09:08:42.899Z,8.35
2019-05-21T09:11:13.176Z,9.85
2019-05-21T09:13:43.329Z,14.75
2019-05-21T09:16:13.565Z,7.78
2019-05-21T09:18:43.890Z,7.92
2019-05-21T09:21:14.038Z,8.15
2019-05-21T09:23:44.153Z,7.62
2019-05-21T09:26:14.448Z,8.70
2019-05-21T09:28:44.592Z,8.88
2019-05-21T09:31:14.922Z,8.35
2019-05-21T09:33:45.073Z,8.10
2019-05-21T09:36:15.287Z,6.55
2019-05-21T09:38:45.393Z,10.10
2019-05-21T09:41:15.613Z,8.50
2019-05-21T09:43:45.817Z,8.00
2019-05-21T09:46:16.070Z,11.65
2019-05-21T09:48:46.286Z,10.20
2019-05-21T09:51:20.273Z,8.60
2019-05-21T09:53:48.402Z,10.13
2019-05-21T09:56:34.860Z,11.43
2019-05-21T09:59:11.793Z,14.63
2019-05-21T10:01:47.624Z,13.00
2019-05-21T10:04:15.557Z,14.15
2019-05-21T10:06:45.889Z,12.07
2019-05-21T10:09:21.169Z,16.55
2019-05-21T10:11:51.256Z,12.05
2019-05-21T10:14:21.576Z,13.00
2019-05-21T10:16:51.871Z,12.65
2019-05-21T10:19:22.189Z,13.22
2019-05-21T10:21:52.514Z,14.35
2019-05-21T10:24:22.864Z,14.68
2019-05-21T10:26:53.163Z,15.00
2019-05-21T10:29:23.624Z,15.63
2019-05-21T10:31:53.886Z,13.60
2019-05-21T10:34:24.109Z,13.35
2019-05-21T10:36:54.312Z,16.77
2019-05-21T10:39:24.653Z,15.03
2019-05-21T10:41:55.087Z,18.90
2019-05-21T10:44:25.329Z,17.67
2019-05-21T10:46:55.624Z,18.67
2019-05-21T10:49:26.849Z,20.20
2019-05-21T10:51:57.074Z,16.15
2019-05-21T10:54:27.326Z,15.35
2019-05-21T10:56:57.645Z,16.50
2019-05-21T10:59:27.957Z,15.85
2019-05-21T11:02:02.616Z,16.60
2019-05-21T11:04:34.516Z,14.20
2019-05-21T11:07:04.937Z,16.25
2019-05-21T11:09:35.207Z,13.88
2019-05-21T11:12:07.119Z,14.38
2019-05-21T11:14:37.476Z,14.38
2019-05-21T11:17:12.138Z,13.35
2019-05-21T11:19:42.548Z,12.43
2019-05-21T11:22:13.755Z,13.13
2019-05-21T11:24:47.388Z,11.88
2019-05-21T11:27:20.610Z,12.55
2019-05-21T11:29:54.537Z,12.45
2019-05-21T11:32:25.434Z,13.98
2019-05-21T11:35:03.975Z,13.50
2019-05-21T11:37:41.069Z,13.65
2019-05-21T11:40:14.698Z,10.80
2019-05-21T11:42:47.371Z,12.18
2019-05-21T11:45:31.728Z,12.20
2019-05-21T11:47:50.167Z,13.35
2019-05-21T11:50:25.562Z,11.90
2019-05-21T11:52:56.816Z,18.25
2019-05-21T11:55:27.036Z,15.70
2019-05-21T11:57:57.204Z,14.90
2019-05-21T12:00:29.029Z,15.50
2019-05-21T12:02:59.365Z,11.65
2019-05-21T12:05:29.592Z,11.15
2019-05-21T12:07:59.944Z,13.22
2019-05-21T12:10:30.179Z,11.97
2019-05-21T12:13:00.410Z,14.80
2019-05-21T12:15:30.644Z,11.83
2019-05-21T12:18:00.917Z,15.32
2019-05-21T12:20:36.857Z,12.58
2019-05-21T12:23:04.227Z,13.55
2019-05-21T12:25:34.547Z,13.32
2019-05-21T12:28:04.906Z,12.23
2019-05-21T12:30:35.085Z,13.08
2019-05-21T12:33:05.538Z,13.68
2019-05-21T12:35:35.725Z,13.18
2019-05-21T12:38:05.871Z,14.83
2019-05-21T12:40:38.424Z,13.72
2019-05-21T12:43:08.654Z,15.20
2019-05-21T12:45:38.872Z,14.58
2019-05-21T12:48:10.026Z,12.73
2019-05-21T12:50:40.563Z,13.85
2019-05-21T12:53:10.940Z,13.18
2019-05-21T12:55:41.530Z,14.15
2019-05-21T12:58:12.171Z,13.78
2019-05-21T13:00:43.234Z,13.18
2019-05-21T13:03:13.671Z,14.25
2019-05-21T13:05:43.768Z,18.48
2019-05-21T13:08:13.923Z,14.38
2019-05-21T13:10:45.027Z,14.25
2019-05-21T13:13:15.245Z,13.93
2019-05-21T13:15:45.401Z,14.07
2019-05-21T13:18:15.620Z,15.20
2019-05-21T13:20:45.794Z,15.10
2019-05-21T13:23:15.943Z,19.82
2019-05-21T13:25:46.199Z,18.02
2019-05-21T13:28:16.312Z,14.58
2019-05-21T13:30:46.611Z,14.95
2019-05-21T13:33:19.379Z,14.63
2019-05-21T13:35:48.718Z,14.75
2019-05-21T13:38:18.967Z,15.85
2019-05-21T13:40:49.789Z,15.43
2019-05-21T13:43:21.435Z,13.58
2019-05-21T13:45:52.002Z,15.48
2019-05-21T13:48:22.064Z,12.47
2019-05-21T13:50:52.372Z,15.13
2019-05-21T13:53:22.531Z,13.93
2019-05-21T13:55:52.764Z,12.25
2019-05-21T13:58:22.867Z,14.38
2019-05-21T14:00:56.080Z,13.68
2019-05-21T14:03:26.165Z,15.40
2019-05-21T14:05:57.403Z,13.62
2019-05-21T14:08:27.715Z,14.80
2019-05-21T14:10:57.791Z,14.65
2019-05-21T14:13:28.257Z,14.38
2019-05-21T14:15:58.654Z,14.13
2019-05-21T14:18:28.899Z,12.33
2019-05-21T14:20:59.067Z,12.60
2019-05-21T14:23:29.226Z,15.83
2019-05-21T14:25:59.495Z,14.68
2019-05-21T14:28:34.294Z,16.82
2019-05-21T14:31:02.626Z,12.63
2019-05-21T14:33:32.880Z,19.37
2019-05-21T14:36:04.256Z,26.15
2019-05-21T14:38:34.507Z,23.50
2019-05-21T14:41:04.763Z,25.92
2019-05-21T14:43:34.987Z,26.70
2019-05-21T14:46:06.545Z,23.75
2019-05-21T14:48:36.729Z,23.73
2019-05-21T14:51:06.737Z,25.88
2019-05-21T14:53:36.829Z,22.85
2019-05-21T14:56:06.995Z,26.12
2019-05-21T14:58:37.065Z,25.85
2019-05-21T15:01:07.506Z,27.27
2019-05-21T15:03:37.732Z,27.93
2019-05-21T15:06:07.833Z,25.90
2019-05-21T15:08:38.007Z,24.72
2019-05-21T15:11:08.087Z,25.48
2019-05-21T15:13:38.254Z,24.70
2019-05-21T15:16:08.416Z,23.90
2019-05-21T15:18:38.588Z,25.35
2019-05-21T15:21:13.369Z,24.63
2019-05-21T15:23:44.079Z,25.45
2019-05-21T15:26:14.771Z,24.75
2019-05-21T15:28:44.918Z,26.85
2019-05-21T15:31:15.263Z,25.43
2019-05-21T15:33:45.460Z,23.90
2019-05-21T15:36:15.620Z,24.67
2019-05-21T15:38:50.519Z,25.25
2019-05-21T15:41:17.876Z,29.32
2019-05-21T15:43:48.020Z,25.72
2019-05-21T15:46:18.229Z,27.05
2019-05-21T15:48:48.303Z,25.35
2019-05-21T15:51:18.652Z,26.45
2019-05-21T15:53:48.797Z,27.22
2019-05-21T15:56:19.023Z,24.95
2019-05-21T15:58:49.256Z,23.52
2019-05-21T16:01:19.403Z,25.85
2019-05-21T16:03:49.520Z,25.12
2019-05-21T16:06:19.804Z,25.32
2019-05-21T16:08:50.038Z,25.23
2019-05-21T16:11:28.451Z,27.70
2019-05-21T16:13:53.078Z,25.20
2019-05-21T16:16:23.289Z,25.90
2019-05-21T16:18:53.403Z,21.95
2019-05-21T16:21:23.651Z,24.85
2019-05-21T16:23:53.891Z,20.27
2019-05-21T16:26:24.391Z,24.65
2019-05-21T16:28:54.709Z,24.05
2019-05-21T16:31:24.924Z,25.45
2019-05-21T16:33:55.175Z,25.15
2019-05-21T16:36:25.384Z,23.62
2019-05-21T16:38:55.792Z,26.75
2019-05-21T16:41:26.381Z,29.65
2019-05-21T16:43:56.606Z,21.45
2019-05-21T16:46:26.868Z,24.98
2019-05-21T16:48:59.186Z,26.60
2019-05-21T16:51:29.396Z,22.42
2019-05-21T16:53:59.447Z,20.60
2019-05-21T16:56:29.612Z,21.70
2019-05-21T16:58:59.775Z,23.67
2019-05-21T17:01:29.897Z,25.43
2019-05-21T17:04:00.440Z,22.70
2019-05-21T17:06:30.726Z,25.08
2019-05-21T17:09:00.945Z,25.82
2019-05-21T17:11:32.540Z,24.30
2019-05-21T17:14:04.075Z,24.80
2019-05-21T17:16:34.323Z,22.40
2019-05-21T17:19:04.587Z,27.20
2019-05-21T17:21:34.956Z,26.62
2019-05-21T17:24:05.273Z,23.07
2019-05-21T17:26:35.467Z,27.62
2019-05-21T17:29:05.697Z,24.98
2019-05-21T17:31:35.924Z,26.75
2019-05-21T17:34:06.225Z,27.62
2019-05-21T17:36:36.395Z,27.07
2019-05-21T17:39:07.220Z,28.55
2019-05-21T17:41:37.469Z,27.85
2019-05-21T17:44:08.653Z,27.15
2019-05-21T17:46:38.983Z,27.55
2019-05-21T17:49:09.188Z,28.70
2019-05-21T17:51:39.411Z,27.40
2019-05-21T17:54:13.623Z,26.77
2019-05-21T17:56:43.813Z,31.12
2019-05-21T17:59:14.154Z,28.07
2019-05-21T18:01:44.424Z,28.38
2019-05-21T18:04:16.230Z,28.00
2019-05-21T18:06:47.137Z,29.52
2019-05-21T18:09:19.345Z,29.70
2019-05-21T18:11:50.197Z,27.25
2019-05-21T18:14:20.443Z,28.65
2019-05-21T18:16:50.654Z,31.52
2019-05-21T18:19:21.374Z,30.77
2019-05-21T18:21:51.611Z,29.72
2019-05-21T18:24:22.201Z,33.48
2019-05-21T18:26:52.434Z,29.23
2019-05-21T18:29:23.674Z,27.77
2019-05-21T18:31:53.841Z,30.77
2019-05-21T18:34:24.095Z,31.70
2019-05-21T18:36:54.351Z,31.57
2019-05-21T18:39:25.420Z,29.05
2019-05-21T18:41:55.584Z,31.87
2019-05-21T18:44:25.742Z,33.40
2019-05-21T18:46:56.029Z,30.05
2019-05-21T18:49:27.772Z,29.18
2019-05-21T18:51:59.499Z,28.23
2019-05-21T18:54:29.691Z,29.45
2019-05-21T18:56:59.969Z,29.45
2019-05-21T18:59:30.276Z,29.85
2019-05-21T19:02:00.720Z,30.72
2019-05-21T19:04:31.039Z,31.97
2019-05-21T19:07:01.481Z,31.60
2019-05-21T19:09:31.637Z,35.60
2019-05-21T19:12:01.983Z,34.30
2019-05-21T19:14:32.210Z,32.00
2019-05-21T19:17:02.285Z,34.25
2019-05-21T19:19:32.529Z,29.20
2019-05-21T19:22:02.773Z,34.55
2019-05-21T19:24:33.009Z,35.55
2019-05-21T19:27:03.164Z,31.02
2019-05-21T19:29:33.326Z,33.88
2019-05-21T19:32:04.921Z,31.80
2019-05-21T19:34:35.190Z,34.60
2019-05-21T19:37:05.525Z,39.23
2019-05-21T19:39:36.252Z,40.50
2019-05-21T19:42:06.487Z,41.70
2019-05-21T19:44:36.720Z,37.15
2019-05-21T19:47:06.944Z,34.20
2019-05-21T19:49:38.116Z,36.03
2019-05-21T19:52:08.336Z,38.38
2019-05-21T19:54:38.612Z,35.78
2019-05-21T19:57:08.765Z,38.88
2019-05-21T19:59:39.066Z,42.33
2019-05-21T20:02:10.953Z,43.42
2019-05-21T20:04:42.587Z,43.00
2019-05-21T20:07:14.488Z,41.00
2019-05-21T20:09:45.630Z,39.27
2019-05-21T20:12:17.359Z,40.52
2019-05-21T20:14:47.658Z,45.08
2019-05-21T20:17:18.226Z,40.70
2019-05-21T20:19:50.105Z,40.20
2019-05-21T20:22:20.347Z,42.17
2019-05-21T20:24:50.882Z,39.08
2019-05-21T20:27:20.965Z,42.13
2019-05-21T20:29:51.191Z,41.48
2019-05-21T20:32:22.216Z,43.65
2019-05-21T20:34:52.534Z,40.95
2019-05-21T20:37:24.198Z,44.45
2019-05-21T20:39:55.191Z,42.88
2019-05-21T20:42:27.007Z,42.55
2019-05-21T20:44:57.337Z,42.93
2019-05-21T20:47:28.948Z,44.03
2019-05-21T20:50:00.078Z,46.13
2019-05-21T20:52:30.419Z,40.55
2019-05-21T20:55:00.807Z,42.43
2019-05-21T20:57:37.767Z,43.75
2019-05-21T21:00:09.003Z,45.78
2019-05-21T21:02:41.851Z,49.40
2019-05-21T21:05:13.145Z,49.90
2019-05-21T21:07:43.457Z,44.70
2019-05-21T21:10:14.375Z,45.03
2019-05-21T21:12:44.767Z,45.25
2019-05-21T21:15:15.214Z,47.15
2019-05-21T21:17:45.341Z,53.92
2019-05-21T21:20:15.754Z,45.33
2019-05-21T21:22:46.063Z,41.37
2019-05-21T21:25:22.847Z,48.92
2019-05-21T21:27:53.519Z,48.83
2019-05-21T21:30:26.571Z,50.45
2019-05-21T21:32:56.968Z,49.50
2019-05-21T21:35:27.293Z,45.58
2019-05-21T21:37:58.335Z,47.38
2019-05-21T21:40:28.580Z,46.05
2019-05-21T21:42:58.920Z,46.77
2019-05-21T21:45:29.185Z,43.20
2019-05-21T21:47:59.284Z,50.25
2019-05-21T21:50:29.909Z,44.58
2019-05-21T21:53:00.150Z,50.80
2019-05-21T21:55:32.044Z,51.92
2019-05-21T21:58:02.702Z,53.17
2019-05-21T22:00:55.380Z,50.33
2019-05-21T22:03:32.532Z,49.45
2019-05-21T22:06:04.714Z,52.38
2019-05-21T22:08:36.052Z,49.65
2019-05-21T22:11:06.813Z,51.60
2019-05-21T22:13:37.426Z,54.95
2019-05-21T22:16:07.845Z,53.13
2019-05-21T22:18:38.372Z,58.73
2019-05-21T22:21:08.960Z,53.90
2019-05-21T22:23:39.584Z,52.55
2019-05-21T22:26:09.768Z,56.80
2019-05-21T22:28:40.016Z,56.75
2019-05-21T22:31:10.306Z,55.63
2019-05-21T22:33:41.739Z,57.15
2019-05-21T22:36:12.045Z,52.80
2019-05-21T22:38:42.367Z,51.55
2019-05-21T22:41:12.497Z,54.18
2019-05-21T22:43:44.246Z,55.28
2019-05-21T22:46:14.686Z,56.42
2019-05-21T22:48:45.537Z,50.48
2019-05-21T22:51:15.779Z,58.17
2019-05-21T22:53:46.164Z,57.13
2019-05-21T22:56:16.380Z,57.50
2019-05-21T22:58:46.690Z,63.10
2019-05-21T23:01:17.432Z,60.23
2019-05-21T23:03:47.767Z,58.73
2019-05-21T23:06:18.734Z,53.28
2019-05-21T23:08:49.223Z,56.75
2019-05-21T23:11:22.853Z,54.88
2019-05-21T23:13:51.144Z,56.35
2019-05-21T23:16:21.405Z,56.37
2019-05-21T23:19:10.914Z,54.05
2019-05-21T23:21:51.994Z,48.45
2019-05-21T23:24:23.769Z,53.30
2019-05-21T23:26:54.494Z,55.55
2019-05-21T23:29:25.914Z,52.10
2019-05-21T23:31:56.207Z,49.50
2019-05-21T23:34:26.782Z,48.13
2019-05-21T23:36:58.378Z,50.38
2019-05-21T23:39:28.741Z,54.50
2019-05-21T23:41:59.265Z,51.70
2019-05-21T23:44:29.898Z,53.38
2019-05-21T23:47:00.062Z,58.13
2019-05-21T23:49:30.318Z,62.15
2019-05-21T23:52:00.423Z,52.58
2019-05-21T23:54:30.603Z,45.60
2019-05-21T23:57:01.682Z,43.42
2019-05-21T23:59:31.707Z,47.75
